createdAt,value
2018-03-16T00:00:30.621Z,9.60
2018-03-16T00:02:58.253Z,9.60
2018-03-16T00:05:25.844Z,9.60
2018-03-16T00:07:53.292Z,9.60
2018-03-16T00:10:20.748Z,9.50
2018-03-16T00:12:48.206Z,9.50
2018-03-16T00:15:15.968Z,9.50
2018-03-16T00:17:43.732Z,9.50
2018-03-16T00:20:11.181Z,9.40
2018-03-16T00:22:38.644Z,9.40
2018-03-16T00:25:06.089Z,9.40
2018-03-16T00:27:33.503Z,9.40
2018-03-16T00:30:01.013Z,9.40
2018-03-16T00:32:28.769Z,9.40
2018-03-16T00:34:56.207Z,9.40
2018-03-16T00:37:23.688Z,9.50
2018-03-16T00:39:51.149Z,9.50
2018-03-16T00:42:18.577Z,9.50
2018-03-16T00:44:46.000Z,9.50
2018-03-16T00:47:13.579Z,9.40
2018-03-16T00:49:40.976Z,9.50
2018-03-16T00:52:08.607Z,9.30
2018-03-16T00:54:36.189Z,9.30
2018-03-16T00:57:03.652Z,9.30
2018-03-16T00:59:31.076Z,9.30
2018-03-16T01:01:58.560Z,9.30
2018-03-16T01:04:26.028Z,9.10
2018-03-16T01:06:53.776Z,9.10
2018-03-16T01:09:21.209Z,9.00
2018-03-16T01:11:48.688Z,9.00
2018-03-16T01:14:16.122Z,9.00
2018-03-16T01:16:43.548Z,9.10
2018-03-16T01:19:11.060Z,9.00
2018-03-16T01:21:38.511Z,9.00
2018-03-16T01:24:05.944Z,8.90
2018-03-16T01:26:33.371Z,8.90
2018-03-16T01:29:00.884Z,8.80
2018-03-16T01:31:28.340Z,8.90
2018-03-16T01:33:55.773Z,8.90
2018-03-16T01:36:23.195Z,8.90
2018-03-16T01:38:50.708Z,8.90
2018-03-16T01:41:18.164Z,8.90
2018-03-16T01:43:45.616Z,8.90
2018-03-16T01:46:13.076Z,8.90
2018-03-16T01:48:40.504Z,8.90
2018-03-16T01:51:07.962Z,8.80
2018-03-16T01:53:35.445Z,8.80
2018-03-16T01:56:02.872Z,8.80
2018-03-16T01:58:30.361Z,8.80
2018-03-16T02:00:57.812Z,8.80
2018-03-16T02:03:25.243Z,8.80
2018-03-16T02:05:52.944Z,8.80
2018-03-16T02:08:20.403Z,8.80
2018-03-16T02:10:47.951Z,8.80
2018-03-16T02:13:15.403Z,8.70
2018-03-16T02:15:43.168Z,8.70
2018-03-16T02:18:10.599Z,8.70
2018-03-16T02:20:38.081Z,8.70
2018-03-16T02:23:05.712Z,8.70
2018-03-16T02:25:33.300Z,8.70
2018-03-16T02:28:00.750Z,8.70
2018-03-16T02:30:28.393Z,8.70
2018-03-16T02:32:55.822Z,8.70
2018-03-16T02:35:24.045Z,8.70
2018-03-16T02:37:51.597Z,8.70
2018-03-16T02:40:19.260Z,8.70
2018-03-16T02:42:46.697Z,8.70
2018-03-16T02:45:14.153Z,8.70
2018-03-16T02:47:41.637Z,8.70
2018-03-16T02:50:09.069Z,8.70
2018-03-16T02:52:36.496Z,8.80
2018-03-16T02:55:04.003Z,8.80
2018-03-16T02:57:31.454Z,8.80
2018-03-16T02:59:58.875Z,8.80
2018-03-16T03:02:26.372Z,8.80
2018-03-16T03:04:53.804Z,8.90
2018-03-16T03:07:21.231Z,8.90
2018-03-16T03:09:48.656Z,8.90
2018-03-16T03:12:16.113Z,8.90
2018-03-16T03:14:43.546Z,8.90
2018-03-16T03:17:11.084Z,8.90
2018-03-16T03:19:38.564Z,8.90
2018-03-16T03:22:06.032Z,8.90
2018-03-16T03:24:33.480Z,8.80
2018-03-16T03:27:00.895Z,8.80
2018-03-16T03:29:28.392Z,8.80
2018-03-16T03:31:55.844Z,8.80
2018-03-16T03:34:23.282Z,8.80
2018-03-16T03:36:50.700Z,8.80
2018-03-16T03:39:18.211Z,8.80
2018-03-16T03:41:45.632Z,8.90
2018-03-16T03:44:13.128Z,8.90
2018-03-16T03:46:40.744Z,8.90
2018-03-16T03:49:09.148Z,8.90
2018-03-16T03:51:36.624Z,8.80
2018-03-16T03:54:04.057Z,8.80
2018-03-16T03:56:31.532Z,8.80
2018-03-16T03:58:59.095Z,8.80
2018-03-16T04:01:26.560Z,8.80
2018-03-16T04:03:54.188Z,8.80
2018-03-16T04:06:21.650Z,8.80
2018-03-16T04:08:49.224Z,8.80
2018-03-16T04:11:16.656Z,8.80
2018-03-16T04:13:44.068Z,8.80
2018-03-16T04:16:11.592Z,8.80
2018-03-16T04:18:39.012Z,8.90
2018-03-16T04:21:06.509Z,8.90
2018-03-16T04:23:33.964Z,9.00
2018-03-16T04:26:01.420Z,9.00
2018-03-16T04:28:28.842Z,9.00
2018-03-16T04:30:56.331Z,9.00
2018-03-16T04:33:23.758Z,9.00
2018-03-16T04:35:51.188Z,9.10
2018-03-16T04:38:18.609Z,9.00
2018-03-16T04:40:46.036Z,9.10
2018-03-16T04:43:13.611Z,9.10
2018-03-16T04:45:41.044Z,9.10
2018-03-16T04:48:08.488Z,9.00
2018-03-16T04:50:35.900Z,9.00
2018-03-16T04:53:03.447Z,8.90
2018-03-16T04:55:30.867Z,8.90
2018-03-16T04:57:58.294Z,8.80
2018-03-16T05:00:26.740Z,8.70
2018-03-16T05:02:54.192Z,8.70
2018-03-16T05:05:21.636Z,8.70
2018-03-16T05:07:49.099Z,8.70
2018-03-16T05:10:16.736Z,8.70
2018-03-16T05:12:44.228Z,8.70
2018-03-16T05:15:11.805Z,8.60
2018-03-16T05:17:39.540Z,8.50
2018-03-16T05:20:06.991Z,8.50
2018-03-16T05:22:34.423Z,8.60
2018-03-16T05:25:01.907Z,8.60
2018-03-16T05:27:29.336Z,8.50
2018-03-16T05:29:56.822Z,8.50
2018-03-16T05:32:24.284Z,8.50
2018-03-16T05:34:51.732Z,8.50
2018-03-16T05:37:19.169Z,8.60
2018-03-16T05:39:46.603Z,8.50
2018-03-16T05:42:14.033Z,8.50
2018-03-16T05:44:41.460Z,8.50
2018-03-16T05:47:09.015Z,8.50
2018-03-16T05:49:36.698Z,8.50
2018-03-16T05:52:04.243Z,8.50
2018-03-16T05:54:31.688Z,8.50
2018-03-16T05:56:59.144Z,8.60
2018-03-16T05:59:26.580Z,8.50
2018-03-16T06:01:54.016Z,8.50
2018-03-16T06:04:22.388Z,8.60
2018-03-16T06:06:49.812Z,8.50
2018-03-16T06:09:17.348Z,8.60
2018-03-16T06:11:44.780Z,8.60
2018-03-16T06:14:12.199Z,8.60
2018-03-16T06:16:39.752Z,8.60
2018-03-16T06:19:07.485Z,8.70
2018-03-16T06:21:34.936Z,8.70
2018-03-16T06:24:02.392Z,8.70
2018-03-16T06:26:29.816Z,8.70
2018-03-16T06:28:57.264Z,8.70
2018-03-16T06:31:25.455Z,8.80
2018-03-16T06:33:52.900Z,8.80
2018-03-16T06:36:21.110Z,8.90
2018-03-16T06:38:48.667Z,8.90
2018-03-16T06:41:16.096Z,8.90
2018-03-16T06:43:43.532Z,9.00
2018-03-16T06:46:11.037Z,9.00
2018-03-16T06:48:38.468Z,9.00
2018-03-16T06:51:05.896Z,9.00
2018-03-16T06:53:33.328Z,9.00
2018-03-16T06:56:00.772Z,9.10
2018-03-16T06:58:28.205Z,9.10
2018-03-16T07:00:55.782Z,9.10
2018-03-16T07:03:23.437Z,9.10
2018-03-16T07:05:50.864Z,9.20
2018-03-16T07:08:18.288Z,9.20
2018-03-16T07:10:45.811Z,9.20
2018-03-16T07:13:13.241Z,9.20
2018-03-16T07:15:40.689Z,9.30
2018-03-16T07:18:08.200Z,9.30
2018-03-16T07:20:36.197Z,9.30
2018-03-16T07:23:03.876Z,9.30
2018-03-16T07:25:33.641Z,9.30
2018-03-16T07:28:01.213Z,9.30
2018-03-16T07:30:28.706Z,9.30
2018-03-16T07:32:56.440Z,9.30
2018-03-16T07:35:23.916Z,9.30
2018-03-16T07:37:51.356Z,9.20
2018-03-16T07:40:18.957Z,9.20
2018-03-16T07:42:46.529Z,9.20
2018-03-16T07:45:13.962Z,9.20
2018-03-16T07:47:41.384Z,9.20
2018-03-16T07:50:08.819Z,9.20
2018-03-16T07:52:36.351Z,9.20
2018-03-16T07:55:03.812Z,9.20
2018-03-16T07:57:31.263Z,9.20
2018-03-16T07:59:58.891Z,9.30
2018-03-16T08:02:26.476Z,9.30
2018-03-16T08:04:53.936Z,9.30
2018-03-16T08:07:21.562Z,9.30
2018-03-16T08:09:49.158Z,9.30
2018-03-16T08:12:16.628Z,9.40
2018-03-16T08:14:44.078Z,9.40
2018-03-16T08:17:11.572Z,9.50
2018-03-16T08:19:39.151Z,9.50
2018-03-16T08:22:06.699Z,9.50
2018-03-16T08:24:34.200Z,9.60
2018-03-16T08:27:01.657Z,9.60
2018-03-16T08:29:29.116Z,9.70
2018-03-16T08:31:56.748Z,9.70
2018-03-16T08:34:24.339Z,9.60
2018-03-16T08:36:51.768Z,9.60
2018-03-16T08:39:19.183Z,9.50
2018-03-16T08:41:46.700Z,9.60
2018-03-16T08:44:14.146Z,9.60
2018-03-16T08:46:41.553Z,9.60
2018-03-16T08:49:08.977Z,9.60
2018-03-16T08:51:36.527Z,9.60
2018-03-16T08:54:03.980Z,9.60
2018-03-16T08:56:31.407Z,9.60
2018-03-16T08:58:58.896Z,9.60
2018-03-16T09:01:26.356Z,9.60
2018-03-16T09:03:53.808Z,9.60
2018-03-16T09:06:21.236Z,9.60
2018-03-16T09:08:49.538Z,9.70
2018-03-16T09:11:17.100Z,9.60
2018-03-16T09:13:44.556Z,9.60
2018-03-16T09:16:11.984Z,9.70
2018-03-16T09:18:39.404Z,9.70
2018-03-16T09:21:06.828Z,9.70
2018-03-16T09:23:34.380Z,9.80
2018-03-16T09:26:02.004Z,9.80
2018-03-16T09:28:30.210Z,9.90
2018-03-16T09:30:57.622Z,9.90
2018-03-16T09:33:25.050Z,10.00
2018-03-16T09:35:53.508Z,10.00
2018-03-16T09:38:20.991Z,10.00
2018-03-16T09:40:48.441Z,10.00
2018-03-16T09:43:16.178Z,10.00
2018-03-16T09:45:43.636Z,10.00
2018-03-16T09:48:11.091Z,10.10
2018-03-16T09:50:38.548Z,10.10
2018-03-16T09:53:06.017Z,10.00
2018-03-16T09:55:34.295Z,10.00
2018-03-16T09:58:01.833Z,10.00
2018-03-16T10:00:29.264Z,10.10
2018-03-16T10:02:56.695Z,10.10
2018-03-16T10:05:24.120Z,10.20
2018-03-16T10:07:51.667Z,10.30
2018-03-16T10:10:19.327Z,10.30
2018-03-16T10:12:46.888Z,10.40
2018-03-16T10:15:14.516Z,10.40
2018-03-16T10:17:41.968Z,10.40
2018-03-16T10:20:10.144Z,10.50
2018-03-16T10:22:37.636Z,10.40
2018-03-16T10:25:05.089Z,10.40
2018-03-16T10:27:32.728Z,10.50
2018-03-16T10:30:00.216Z,10.50
2018-03-16T10:32:27.772Z,10.50
2018-03-16T10:34:55.224Z,10.40
2018-03-16T10:37:22.988Z,10.50
2018-03-16T10:39:50.620Z,10.50
2018-03-16T10:42:18.203Z,10.50
2018-03-16T10:44:45.623Z,10.60
2018-03-16T10:47:13.039Z,10.60
2018-03-16T10:49:40.479Z,10.60
2018-03-16T10:52:08.030Z,10.70
2018-03-16T10:54:35.664Z,10.80
2018-03-16T10:57:03.261Z,10.70
2018-03-16T10:59:30.712Z,10.80
2018-03-16T11:05:06.533Z,10.90
2018-03-16T11:07:48.621Z,10.90
2018-03-16T11:10:16.824Z,11.00
2018-03-16T11:12:44.413Z,11.00
2018-03-16T11:15:11.868Z,11.10
2018-03-16T11:17:39.427Z,11.20
2018-03-16T11:20:07.060Z,11.30
2018-03-16T11:22:34.550Z,11.30
2018-03-16T11:25:02.020Z,11.30
2018-03-16T11:27:29.460Z,11.40
2018-03-16T11:29:56.930Z,11.50
2018-03-16T11:32:24.472Z,11.50
2018-03-16T11:34:52.232Z,11.60
2018-03-16T11:37:19.996Z,11.60
2018-03-16T11:39:47.700Z,11.60
2018-03-16T11:42:15.212Z,11.60
2018-03-16T11:44:42.632Z,11.60
2018-03-16T11:47:10.841Z,11.60
2018-03-16T11:49:38.256Z,11.60
2018-03-16T11:52:06.469Z,11.60
2018-03-16T11:54:33.876Z,11.60
2018-03-16T11:57:02.084Z,11.60
2018-03-16T11:59:29.508Z,11.60
2018-03-16T12:01:56.936Z,11.60
2018-03-16T12:04:24.352Z,11.60
2018-03-16T12:06:51.845Z,11.60
2018-03-16T12:09:19.292Z,11.60
2018-03-16T12:11:46.846Z,11.70
2018-03-16T12:14:14.477Z,11.70
2018-03-16T12:16:41.967Z,11.70
2018-03-16T12:19:09.416Z,11.80
2018-03-16T12:21:37.027Z,11.80
2018-03-16T12:24:04.740Z,11.90
2018-03-16T12:26:32.168Z,12.00
2018-03-16T12:28:59.604Z,12.00
2018-03-16T12:31:27.108Z,12.10
2018-03-16T12:33:54.640Z,12.10
2018-03-16T12:36:22.322Z,12.00
2018-03-16T12:38:49.752Z,12.10
2018-03-16T12:41:17.240Z,12.20
2018-03-16T12:43:44.875Z,12.10
2018-03-16T12:46:12.454Z,12.10
2018-03-16T12:48:39.915Z,12.10
2018-03-16T12:51:07.551Z,12.20
2018-03-16T12:53:35.005Z,12.10
2018-03-16T12:56:02.593Z,12.10
2018-03-16T12:58:30.030Z,12.10
2018-03-16T13:00:57.452Z,12.10
2018-03-16T13:03:24.882Z,12.10
2018-03-16T13:05:52.409Z,12.10
2018-03-16T13:08:19.836Z,12.10
2018-03-16T13:10:47.268Z,12.10
2018-03-16T13:13:14.687Z,12.10
2018-03-16T13:15:42.152Z,12.20
2018-03-16T13:18:09.596Z,12.50
2018-03-16T13:20:37.023Z,13.50
2018-03-16T13:23:04.616Z,14.70
2018-03-16T13:25:32.068Z,15.80
2018-03-16T13:27:59.700Z,16.90
2018-03-16T13:30:27.113Z,18.00
2018-03-16T13:32:54.649Z,19.10
2018-03-16T13:35:22.108Z,19.30
2018-03-16T13:37:49.549Z,19.40
2018-03-16T13:40:17.012Z,20.60
2018-03-16T13:42:44.532Z,21.80
2018-03-16T13:45:12.019Z,22.20
2018-03-16T13:47:39.448Z,21.70
2018-03-16T13:50:06.856Z,21.80
2018-03-16T13:52:34.393Z,21.60
2018-03-16T13:55:01.843Z,21.30
2018-03-16T13:57:29.259Z,20.60
2018-03-16T13:59:56.685Z,19.70
2018-03-16T14:02:24.220Z,18.90
2018-03-16T14:04:51.984Z,18.80
2018-03-16T14:07:19.611Z,19.00
2018-03-16T14:09:47.135Z,18.30
2018-03-16T14:12:14.660Z,18.10
2018-03-16T14:14:42.310Z,17.90
2018-03-16T14:17:09.745Z,17.60
2018-03-16T14:19:37.344Z,17.40
2018-03-16T14:22:04.764Z,17.20
2018-03-16T14:24:32.220Z,16.80
2018-03-16T14:26:59.703Z,17.60
2018-03-16T14:29:27.465Z,19.00
2018-03-16T14:31:54.920Z,20.80
2018-03-16T14:34:22.365Z,21.40
2018-03-16T14:36:49.781Z,21.80
2018-03-16T14:39:17.191Z,21.50
2018-03-16T14:41:44.678Z,20.80
2018-03-16T14:44:12.200Z,20.10
2018-03-16T14:46:39.655Z,19.40
2018-03-16T14:49:07.115Z,19.00
2018-03-16T14:51:34.572Z,18.90
2018-03-16T14:54:02.189Z,19.00
2018-03-16T14:56:30.392Z,20.80
2018-03-16T14:58:57.805Z,20.70
2018-03-16T15:01:25.231Z,23.20
2018-03-16T15:03:52.675Z,25.50
2018-03-16T15:06:20.227Z,26.20
2018-03-16T15:08:47.632Z,25.80
2018-03-16T15:11:15.148Z,25.10
2018-03-16T15:13:42.561Z,24.40
2018-03-16T15:16:10.410Z,23.60
2018-03-16T15:18:38.001Z,22.80
2018-03-16T15:21:05.472Z,22.10
2018-03-16T15:23:33.036Z,21.10
2018-03-16T15:26:00.491Z,20.00
2018-03-16T15:28:27.907Z,19.40
2018-03-16T15:30:56.092Z,18.20
2018-03-16T15:33:23.661Z,18.20
2018-03-16T15:35:51.143Z,17.80
2018-03-16T15:38:18.600Z,17.70
2018-03-16T15:40:46.152Z,17.80
2018-03-16T15:43:13.572Z,17.70
2018-03-16T15:45:41.062Z,17.70
2018-03-16T15:48:08.521Z,17.70
2018-03-16T15:50:35.929Z,17.40
2018-03-16T15:53:03.357Z,17.40
2018-03-16T15:55:30.779Z,17.20
2018-03-16T15:57:58.224Z,17.00
2018-03-16T16:00:25.674Z,16.70
2018-03-16T16:02:53.259Z,16.60
2018-03-16T16:05:20.692Z,16.50
2018-03-16T16:07:48.117Z,16.40
2018-03-16T16:10:15.540Z,16.20
2018-03-16T16:12:43.082Z,16.10
2018-03-16T16:15:10.581Z,16.00
2018-03-16T16:17:37.939Z,15.80
2018-03-16T16:20:05.373Z,15.70
2018-03-16T16:22:32.808Z,15.60
2018-03-16T16:25:00.366Z,15.50
2018-03-16T16:27:27.784Z,15.40
2018-03-16T16:29:55.218Z,15.20
2018-03-16T16:32:23.545Z,14.90
2018-03-16T16:34:51.021Z,14.90
2018-03-16T16:37:18.480Z,14.90
2018-03-16T16:39:46.025Z,14.80
2018-03-16T16:42:13.448Z,14.60
2018-03-16T16:44:40.970Z,14.60
2018-03-16T16:47:08.702Z,14.50
2018-03-16T16:49:36.435Z,14.50
2018-03-16T16:52:03.918Z,14.40
2018-03-16T16:54:31.341Z,14.40
2018-03-16T16:56:58.837Z,14.30
2018-03-16T16:59:26.249Z,14.30
2018-03-16T17:01:54.591Z,14.10
2018-03-16T17:04:22.125Z,14.10
2018-03-16T17:06:49.566Z,14.00
2018-03-16T17:09:17.037Z,14.00
2018-03-16T17:11:44.795Z,13.90
2018-03-16T17:14:12.565Z,13.90
2018-03-16T17:16:40.228Z,13.80
2018-03-16T17:19:07.689Z,13.80
2018-03-16T17:21:35.145Z,13.80
2018-03-16T17:24:02.595Z,13.70
2018-03-16T17:26:30.057Z,13.70
2018-03-16T17:28:57.483Z,13.60
2018-03-16T17:31:24.975Z,13.50
2018-03-16T17:33:52.397Z,13.50
2018-03-16T17:36:19.974Z,13.40
2018-03-16T17:38:47.434Z,13.30
2018-03-16T17:41:14.849Z,13.30
2018-03-16T17:43:42.277Z,13.20
2018-03-16T17:46:09.699Z,13.20
2018-03-16T17:48:37.258Z,13.20
2018-03-16T17:51:05.024Z,13.10
2018-03-16T17:53:32.784Z,13.10
2018-03-16T17:56:00.209Z,13.00
2018-03-16T17:58:27.708Z,13.00
2018-03-16T18:00:55.156Z,13.00
2018-03-16T18:03:22.789Z,13.00
2018-03-16T18:05:50.324Z,13.00
2018-03-16T18:08:17.744Z,12.90
2018-03-16T18:10:45.188Z,12.90
2018-03-16T18:13:12.608Z,12.90
2018-03-16T18:15:40.044Z,12.80
2018-03-16T18:18:08.575Z,12.70
2018-03-16T18:20:36.005Z,12.70
2018-03-16T18:23:03.488Z,12.70
2018-03-16T18:25:30.949Z,12.60
2018-03-16T18:27:58.404Z,12.60
2018-03-16T18:30:25.846Z,12.60
2018-03-16T18:32:53.271Z,12.60
2018-03-16T18:35:20.705Z,12.60
2018-03-16T18:37:48.115Z,12.50
2018-03-16T18:40:15.557Z,12.50
2018-03-16T18:42:42.984Z,12.50
2018-03-16T18:45:11.201Z,12.40
2018-03-16T18:47:38.619Z,12.40
2018-03-16T18:50:06.816Z,12.30
2018-03-16T18:52:34.245Z,12.30
2018-03-16T18:55:01.873Z,12.20
2018-03-16T18:57:29.613Z,12.20
2018-03-16T18:59:57.077Z,12.20
2018-03-16T19:02:24.596Z,12.20
2018-03-16T19:04:52.088Z,12.10
2018-03-16T19:07:19.537Z,12.10
2018-03-16T19:09:46.971Z,12.10
2018-03-16T19:12:14.449Z,12.10
2018-03-16T19:14:41.876Z,12.00
2018-03-16T19:17:09.313Z,12.00
2018-03-16T19:19:36.736Z,12.00
2018-03-16T19:22:04.173Z,12.00
2018-03-16T19:24:31.637Z,11.90
2018-03-16T19:26:59.072Z,11.90
2018-03-16T19:29:26.654Z,11.90
2018-03-16T19:31:54.112Z,11.90
2018-03-16T19:34:21.536Z,11.80
2018-03-16T19:36:48.956Z,11.80
2018-03-16T19:39:16.476Z,11.80
2018-03-16T19:41:43.937Z,11.70
2018-03-16T19:44:11.575Z,11.70
2018-03-16T19:46:39.016Z,11.60
2018-03-16T19:49:06.512Z,11.60
2018-03-16T19:51:33.937Z,11.60
2018-03-16T19:54:01.417Z,11.50
2018-03-16T19:56:28.844Z,11.50
2018-03-16T19:58:56.317Z,11.50
2018-03-16T20:01:23.781Z,11.50
2018-03-16T20:03:51.201Z,11.50
2018-03-16T20:06:19.590Z,11.50
2018-03-16T20:08:47.086Z,11.50
2018-03-16T20:11:14.540Z,11.50
2018-03-16T20:13:42.088Z,11.40
2018-03-16T20:16:09.522Z,11.30
2018-03-16T20:18:36.948Z,11.30
2018-03-16T20:21:05.181Z,11.10
2018-03-16T20:23:32.708Z,11.10
2018-03-16T20:26:00.159Z,11.00
2018-03-16T20:28:27.584Z,10.90
2018-03-16T20:30:55.080Z,10.80
2018-03-16T20:33:22.681Z,10.70
2018-03-16T20:35:50.111Z,10.70
2018-03-16T20:38:17.550Z,10.60
2018-03-16T20:40:45.028Z,10.60
2018-03-16T20:43:12.460Z,10.50
2018-03-16T20:45:39.955Z,10.40
2018-03-16T20:48:07.577Z,10.30
2018-03-16T20:50:35.103Z,10.30
2018-03-16T20:53:03.562Z,10.00
2018-03-16T20:55:31.316Z,9.90
2018-03-16T20:57:58.773Z,9.80
2018-03-16T21:00:26.519Z,9.80
2018-03-16T21:02:53.972Z,9.80
2018-03-16T21:05:21.454Z,9.80
2018-03-16T21:07:48.904Z,9.70
2018-03-16T21:10:16.652Z,9.60
2018-03-16T21:12:44.085Z,9.60
2018-03-16T21:15:11.561Z,9.60
2018-03-16T21:17:39.012Z,9.50
2018-03-16T21:20:06.499Z,9.50
2018-03-16T21:22:34.122Z,9.50
2018-03-16T21:25:01.701Z,9.40
2018-03-16T21:27:29.127Z,9.30
2018-03-16T21:29:56.548Z,9.30
2018-03-16T21:32:23.981Z,9.30
2018-03-16T21:34:51.540Z,9.30
2018-03-16T21:37:19.248Z,9.30
2018-03-16T21:39:46.704Z,9.10
2018-03-16T21:42:14.159Z,9.10
2018-03-16T21:44:41.603Z,9.00
2018-03-16T21:47:09.112Z,9.00
2018-03-16T21:49:36.559Z,9.00
2018-03-16T21:52:04.024Z,8.90
2018-03-16T21:54:31.459Z,9.00
2018-03-16T21:56:58.890Z,9.00
2018-03-16T21:59:26.411Z,9.00
2018-03-16T22:01:53.880Z,8.90
2018-03-16T22:04:21.558Z,8.80
2018-03-16T22:06:49.168Z,8.80
2018-03-16T22:09:16.854Z,8.80
2018-03-16T22:11:44.267Z,8.70
2018-03-16T22:14:11.748Z,8.60
2018-03-16T22:16:39.372Z,8.60
2018-03-16T22:19:06.868Z,8.50
2018-03-16T22:21:34.334Z,8.50
2018-03-16T22:24:01.776Z,8.50
2018-03-16T22:26:29.240Z,8.40
2018-03-16T22:28:56.792Z,8.40
2018-03-16T22:31:24.218Z,8.40
2018-03-16T22:33:51.700Z,8.40
2018-03-16T22:36:19.142Z,8.30
2018-03-16T22:38:46.574Z,8.30
2018-03-16T22:41:13.996Z,8.20
2018-03-16T22:43:42.191Z,8.20
2018-03-16T22:46:09.828Z,8.20
2018-03-16T22:48:37.260Z,8.10
2018-03-16T22:51:04.735Z,8.20
2018-03-16T22:53:32.273Z,8.10
2018-03-16T22:56:00.036Z,8.10
2018-03-16T22:58:27.670Z,8.00
2018-03-16T23:00:55.128Z,8.00
2018-03-16T23:03:22.681Z,7.90
2018-03-16T23:05:50.170Z,7.90
2018-03-16T23:08:17.805Z,7.80
2018-03-16T23:10:45.235Z,7.80
2018-03-16T23:13:13.748Z,7.60
2018-03-16T23:15:41.225Z,7.60
2018-03-16T23:18:08.674Z,7.60
2018-03-16T23:20:36.104Z,7.50
2018-03-16T23:23:03.597Z,7.50
2018-03-16T23:25:31.047Z,7.50
2018-03-16T23:27:58.487Z,7.40
2018-03-16T23:30:25.964Z,7.30
2018-03-16T23:32:53.728Z,7.30
2018-03-16T23:35:21.488Z,7.30
2018-03-16T23:37:49.130Z,7.30
2018-03-16T23:40:16.561Z,7.30
2018-03-16T23:42:44.780Z,7.20
2018-03-16T23:45:12.412Z,7.20
2018-03-16T23:47:39.878Z,7.10
2018-03-16T23:50:07.364Z,7.10
2018-03-16T23:52:34.798Z,7.00
2018-03-16T23:55:02.368Z,7.00
2018-03-16T23:57:30.000Z,7.00
2018-03-16T23:59:57.510Z,6.90
